CGPEZ CYKF-CYKF
Flight info
| Callsign | CGPEZ |
|---|---|
| Flight time | N/A |
| Altitude | 3000 |
| Route | CYKF/08 |
| Aircraft | TBM9 |
Departure
| Time | 2026-05-07 00:07 |
|---|---|
| Airport | Region of Waterloo International Airport (CYKF) |
Arrival
| Time | N/A |
|---|---|
| Airport | Region of Waterloo International Airport (CYKF) |
| Time | Latitude | Longitude | Altitude | Speed | Heading |
|---|---|---|---|---|---|
| 2026-05-07 00:02 | 43.46011 | -80.39734 | 1037 ft | 0 kts | 102° |
| 2026-05-07 00:04 | 43.46001 | -80.39690 | 1037 ft | 16 kts | 126° |
| 2026-05-07 00:05 | 43.45983 | -80.39548 | 1037 ft | 20 kts | 61° |
| 2026-05-07 00:05 | 43.46049 | -80.39366 | 1036 ft | 23 kts | 62° |
| 2026-05-07 00:05 | 43.46057 | -80.39176 | 1036 ft | 22 kts | 143° |
| 2026-05-07 00:05 | 43.45917 | -80.39052 | 1036 ft | 26 kts | 150° |
| 2026-05-07 00:06 | 43.45841 | -80.38989 | 1035 ft | 11 kts | 146° |
| 2026-05-07 00:06 | 43.45861 | -80.38808 | 1036 ft | 43 kts | 64° |
| 2026-05-07 00:06 | 43.46079 | -80.38191 | 1035 ft | 98 kts | 65° |
| 2026-05-07 00:06 | 43.46392 | -80.37136 | 1113 ft | 136 kts | 63° |
| 2026-05-07 00:07 | 43.46782 | -80.35791 | 1267 ft | 165 kts | 70° |
| 2026-05-07 00:07 | 43.46695 | -80.34127 | 1457 ft | 192 kts | 109° |
| 2026-05-07 00:07 | 43.45995 | -80.32556 | 1911 ft | 196 kts | 129° |
| 2026-05-07 00:07 | 43.45019 | -80.31212 | 2318 ft | 200 kts | 139° |
| 2026-05-07 00:08 | 43.43862 | -80.30122 | 2577 ft | 207 kts | 160° |
| 2026-05-07 00:08 | 43.42442 | -80.29988 | 2808 ft | 207 kts | 199° |
| 2026-05-07 00:08 | 43.41307 | -80.31063 | 3133 ft | 198 kts | 238° |
| 2026-05-07 00:08 | 43.40818 | -80.32794 | 3461 ft | 193 kts | 260° |
| 2026-05-07 00:09 | 43.40503 | -80.34589 | 3780 ft | 193 kts | 261° |
| 2026-05-07 00:09 | 43.40194 | -80.36391 | 4099 ft | 193 kts | 261° |
| 2026-05-07 00:09 | 43.39884 | -80.38183 | 4417 ft | 192 kts | 261° |
| 2026-05-07 00:09 | 43.39563 | -80.39962 | 4743 ft | 191 kts | 261° |
| 2026-05-07 00:10 | 43.39231 | -80.41732 | 5048 ft | 191 kts | 261° |
| 2026-05-07 00:10 | 43.38896 | -80.43492 | 5359 ft | 190 kts | 261° |
| 2026-05-07 00:10 | 43.38566 | -80.45247 | 5671 ft | 189 kts | 261° |
| 2026-05-07 00:10 | 43.38237 | -80.47015 | 5992 ft | 194 kts | 261° |
| 2026-05-07 00:11 | 43.37910 | -80.48811 | 6314 ft | 198 kts | 261° |
| 2026-05-07 00:11 | 43.37577 | -80.50691 | 6459 ft | 209 kts | 261° |
| 2026-05-07 00:11 | 43.37235 | -80.52696 | 6468 ft | 220 kts | 261° |
| 2026-05-07 00:11 | 43.36749 | -80.54732 | 6467 ft | 228 kts | 251° |
| 2026-05-07 00:12 | 43.35925 | -80.56632 | 6464 ft | 236 kts | 239° |
| 2026-05-07 00:12 | 43.34883 | -80.58392 | 6465 ft | 238 kts | 237° |
| 2026-05-07 00:12 | 43.33858 | -80.60170 | 6470 ft | 238 kts | 239° |
| 2026-05-07 00:12 | 43.32865 | -80.61991 | 6470 ft | 238 kts | 239° |
| 2026-05-07 00:13 | 43.31870 | -80.63806 | 6452 ft | 239 kts | 239° |
| 2026-05-07 00:13 | 43.30851 | -80.65664 | 6189 ft | 248 kts | 239° |
| 2026-05-07 00:13 | 43.29803 | -80.67569 | 5917 ft | 252 kts | 238° |
| 2026-05-07 00:13 | 43.28736 | -80.69495 | 5653 ft | 255 kts | 238° |
| 2026-05-07 00:14 | 43.27659 | -80.71430 | 5398 ft | 256 kts | 238° |
| 2026-05-07 00:14 | 43.26581 | -80.73379 | 5137 ft | 257 kts | 238° |
| 2026-05-07 00:14 | 43.25501 | -80.75335 | 4864 ft | 258 kts | 238° |
| 2026-05-07 00:14 | 43.24414 | -80.77295 | 4602 ft | 259 kts | 237° |
| 2026-05-07 00:15 | 43.23325 | -80.79264 | 4331 ft | 259 kts | 237° |
| 2026-05-07 00:15 | 43.22232 | -80.81240 | 4067 ft | 260 kts | 237° |
| 2026-05-07 00:15 | 43.21130 | -80.83217 | 3802 ft | 262 kts | 237° |
| 2026-05-07 00:15 | 43.20027 | -80.85206 | 3540 ft | 263 kts | 236° |
| 2026-05-07 00:16 | 43.18931 | -80.87181 | 3486 ft | 257 kts | 236° |